Terminal Aerodrome Forecast
Issued by NWS

Home | Current Version | Previous Version | Text Only | Print | Product List | Glossary On
Versions: 1 2 3 4 5 6 7 8 9 10 11 12 13
000
FTUS45 KMSO 010000 AAA
TAFSMN
TAF AMD
KSMN 010027Z 0100/0124 12009KT P6SM VCTS SCT080CB BKN150
     FM010200 VRB05KT P6SM SCT080 SCT120
     FM010300 36005KT P6SM BKN120
      AMD LTD TO CLD VIS AND WIND=

USA.gov is the U.S. government's official web portal to all federal, state and local government web resources and services.